x

Great Slave Lake, North Arm (45150) Wave Buoy

12:00am - Sat 30th Aug 2014 All times are UTC.

  • Sig Wave height 2.6ft
  • Peak Period 4s
  • Wind
    18mph, 20mph gusts
  • Sea Temp 55°f
  • Air Temp 56°f
  • Sea Pressure 1005.9mb

More Historic Weather Station data

Upgrade to MSW Pro to gain access to the past 30 days of data for over 8000 Wavebouys and Weather Stations around the globe.

Join Pro

Comparision Forecast

View Surf forecast
   
Sat 08/30 12:00am 2.5ft 4s 18 20 mph 1005.9mb 55f 56f
Fri 08/29 11:00pm 2.5ft 4s 18 22 mph 1006.3mb 55f 56f
10:00pm 2.5ft 4s 20 22 mph 1007mb 55f 55f
9:00pm 2.5ft 4s 18 20 mph 1007.6mb 55f 54f
8:00pm 2.5ft 4s 18 20 mph 1008.1mb 55f 54f
7:00pm 2.5ft 4s 18 20 mph 1008.7mb 54f 53f
6:00pm 3ft 4s 18 22 mph 1009.3mb 54f 53f
5:00pm 2.5ft 4s 18 20 mph 1010mb 54f 52f
4:00pm 2.5ft 4s 18 20 mph 1010.3mb 54f 52f
3:00pm 2.5ft 4s 16 18 mph 1010.5mb 54f 52f
2:00pm 2.5ft 4s 16 18 mph 1010.5mb 55f 52f
1:00pm 2.5ft 4s 16 18 mph 1010.7mb 55f 52f
12:00pm 2.5ft 14s 13 18 mph 1011mb 55f 53f
11:00am 2ft 14s 16 18 mph 1011.2mb 55f 53f
10:00am 1.6ft 14s 16 18 mph 1011.4mb 55f 53f
9:00am 1.6ft 14s 13 16 mph 1011.5mb 55f 54f
8:00am 1.3ft 14s 11 13 mph 1011.7mb 55f 54f
7:00am 1ft 14s 11 13 mph 1011.7mb 55f 54f
6:00am 1ft 13s 9 11 mph 1011.9mb 55f 54f
5:00am 1ft 2s 9 11 mph 1012.1mb 55f 54f
4:00am 0.7ft 2s 11 13 mph 1012.3mb 55f 53f
3:00am 0.7ft 2s 9 11 mph 1012.4mb 55f 53f
2:00am 0.7ft 2s 9 11 mph 1012.6mb 56f 53f
1:00am 0.3ft 2s 9 11 mph 1012.7mb 56f 53f
12:00am 0.3ft 3s 9
mph
1012.8mb 56f 53f
Thu 08/28 11:00pm 0.3ft 14s 7 9 mph 1012.8mb 56f 52f
10:00pm 0.7ft 14s  -  2 mph 1012.8mb 56f 52f
9:00pm 0.7ft 12s 4
mph
1013mb 55f 50f
8:00pm 1ft 14s 7 9 mph 1013.1mb 55f 50f
7:00pm 1ft 3s 7 9 mph 1013.1mb 55f 49f
6:00pm 1.3ft 3s 9 13 mph 1013.1mb 55f 49f
5:00pm 1.3ft 14s 11 13 mph 1012.8mb 55f 49f
4:00pm 1.6ft 13s 11 13 mph 1012.6mb 54f 49f
3:00pm 1.6ft 4s 13 16 mph 1012.4mb 54f 48f
2:00pm 1.6ft 4s 13 16 mph 1012.1mb 54f 48f
1:00pm 2ft 14s 13 16 mph 1011.8mb 54f 49f
12:00pm 2.5ft 14s 13 16 mph 1011.5mb 54f 49f
11:00am 2.5ft 4s 13 18 mph 1011.2mb 54f 49f
10:00am 2.5ft 4s 18 20 mph 1010.5mb 54f 49f
9:00am 2.5ft 4s 18 22 mph 1009.9mb 54f 50f
8:00am 2.5ft 4s 18 20 mph 1009.6mb 54f 50f
7:00am 2.5ft 14s 18 22 mph 1009mb 54f 51f
6:00am 2.5ft 4s 18 22 mph 1008.7mb 54f 51f
5:00am 3ft 4s 18 20 mph 1008.5mb 54f 49f
4:00am 3.5ft 4s 20 25 mph 1007.9mb 54f 49f
3:00am  -   -  25
mph
1007.2mb - 50f
2:00am 3.5ft 4s 25 29 mph 1006.6mb 55f 50f
1:00am  -   -  22
mph
1005.9mb - 50f
Wed 08/27 11:00pm 2ft 4s 18 20 mph 1004.5mb 55f 51f
10:00pm  -   -  16
mph
- - -
9:00pm 1ft 3s 13 18 mph 1003.7mb 55f 52f
8:00pm 1.3ft 13s 9
mph
1003.2mb 55f 54f
7:00pm 1.3ft 14s 11 13 mph 1002.9mb 55f 54f
6:00pm 1ft 13s 11 13 mph 1002.5mb 55f 54f
5:00pm 1ft 14s 13 16 mph 1002.4mb 55f 54f
4:00pm 1ft 13s 4
mph
1002.3mb 55f 54f
3:00pm 1.3ft 13s 4 7 mph 1002mb 55f 55f
2:00pm 1.6ft 12s 9 11 mph 1001.4mb 55f 55f
1:00pm 1.6ft 3s 16 18 mph 1000.9mb 55f 54f
12:00pm 1.6ft 13s 16 20 mph 1002.6mb 55f 54f
11:00am 0.7ft 14s 18 20 mph 1002.7mb 55f 54f
10:00am 0.7ft 2s 7 9 mph 1001.7mb 55f 55f
9:00am 0.3ft 2s 11 13 mph 1001.8mb 55f 55f
8:00am  -  2s 7 9 mph 1002.8mb 55f 55f
7:00am  -  2s 4
mph
1003mb 55f 55f
6:00am 0.3ft 2s 4
mph
1003.6mb 56f 55f
5:00am 0.3ft 2s 4
mph
1004mb 56f 55f
4:00am 0.3ft 2s 2 4 mph 1004.5mb 56f 55f
3:00am 0.3ft 2s 4 7 mph 1004.2mb 56f 55f
2:00am 0.7ft 3s  -  2 mph 1004.4mb 56f 56f
1:00am 0.7ft 3s 4 7 mph 1004.8mb 56f 56f
12:00am 0.7ft 3s 4 7 mph 1005.1mb 56f 57f
Tue 08/26 11:00pm 1ft 4s 4 7 mph 1005.2mb 56f 56f
10:00pm 1.3ft 4s 7 9 mph 1005.5mb 55f 56f
9:00pm 1.3ft 4s 9
mph
1005.7mb 55f 56f
8:00pm 1.6ft 4s 11 13 mph 1005.4mb 55f 56f
7:00pm 2ft 4s 13 16 mph 1005mb 55f 56f
6:00pm 2.5ft 4s 13 16 mph 1004.9mb 55f 56f
5:00pm 2.5ft 4s 16 18 mph 1004.7mb 55f 55f
4:00pm 2.5ft 4s 18 20 mph 1004.3mb 55f 55f
3:00pm 2.5ft 4s 18 20 mph 1003.7mb 55f 56f
2:00pm 2ft 14s 16 18 mph 1003.6mb 55f 55f
1:00pm 2ft 14s 16 18 mph 1003.3mb 55f 55f
12:00pm 1ft 13s 16 18 mph 1003.1mb 55f 56f
11:00am 1ft 3s 11 13 mph 1002.6mb 55f 56f
10:00am 1ft 14s 9 11 mph 1002.4mb 55f 56f
9:00am 1ft 3s 11 13 mph 1002.1mb 55f 56f
8:00am 1.3ft 3s 9 11 mph 1002.2mb 55f 56f
7:00am 1.6ft 14s 9
mph
1002.1mb 55f 57f
6:00am 1.6ft 14s 9 11 mph 1002.2mb 55f 57f
5:00am 1.3ft 13s 9 11 mph 1002.7mb 55f 57f
4:00am 1ft 3s 9 11 mph 1002.8mb 55f 58f
3:00am 1ft 3s 11
mph
1003.7mb 55f 59f
2:00am 1.3ft 14s 9 11 mph 1004.4mb 55f 60f